createdAt,value
2018-11-02T00:00:01.156Z,7.40
2018-11-02T00:02:28.432Z,7.30
2018-11-02T00:04:55.726Z,7.30
2018-11-02T00:07:23.145Z,7.30
2018-11-02T00:09:50.440Z,7.30
2018-11-02T00:12:17.787Z,7.30
2018-11-02T00:14:45.188Z,7.30
2018-11-02T00:17:12.511Z,7.30
2018-11-02T00:19:39.816Z,7.30
2018-11-02T00:22:07.171Z,7.30
2018-11-02T00:24:34.468Z,7.20
2018-11-02T00:27:02.056Z,7.20
2018-11-02T00:29:30.651Z,7.20
2018-11-02T00:31:58.121Z,7.20
2018-11-02T00:34:25.271Z,7.30
2018-11-02T00:36:52.736Z,7.40
2018-11-02T00:39:20.057Z,7.40
2018-11-02T00:41:47.363Z,7.50
2018-11-02T00:44:14.978Z,7.50
2018-11-02T00:46:42.097Z,7.50
2018-11-02T00:49:09.441Z,7.40
2018-11-02T00:51:37.319Z,7.40
2018-11-02T00:54:05.461Z,7.40
2018-11-02T00:56:32.855Z,7.40
2018-11-02T00:59:00.281Z,7.30
2018-11-02T01:01:27.564Z,7.30
2018-11-02T01:03:54.863Z,7.30
2018-11-02T01:06:22.392Z,7.20
2018-11-02T01:08:49.709Z,7.20
2018-11-02T01:11:17.112Z,7.30
2018-11-02T01:13:44.520Z,7.20
2018-11-02T01:16:11.817Z,7.10
2018-11-02T01:18:39.143Z,7.10
2018-11-02T01:21:06.570Z,7.10
2018-11-02T01:23:33.864Z,7.10
2018-11-02T01:26:01.160Z,7.10
2018-11-02T01:28:28.504Z,7.00
2018-11-02T01:30:55.848Z,7.10
2018-11-02T01:33:29.084Z,7.00
2018-11-02T01:35:56.383Z,7.00
2018-11-02T01:38:23.680Z,7.00
2018-11-02T01:40:51.098Z,6.90
2018-11-02T01:43:18.415Z,6.90
2018-11-02T01:45:45.705Z,6.80
2018-11-02T01:48:13.144Z,6.80
2018-11-02T01:50:40.409Z,6.90
2018-11-02T01:53:07.741Z,6.90
2018-11-02T01:55:35.099Z,7.00
2018-11-02T01:58:02.376Z,7.00
2018-11-02T02:00:29.712Z,7.00
2018-11-02T02:02:57.139Z,7.10
2018-11-02T02:05:24.467Z,7.30
2018-11-02T02:07:51.781Z,7.20
2018-11-02T02:10:19.200Z,7.20
2018-11-02T02:12:46.469Z,7.20
2018-11-02T02:15:13.762Z,7.30
2018-11-02T02:17:41.142Z,7.20
2018-11-02T02:20:08.546Z,7.30
2018-11-02T02:22:35.838Z,7.30
2018-11-02T02:25:03.287Z,7.40
2018-11-02T02:27:35.192Z,7.40
2018-11-02T02:30:02.968Z,7.40
2018-11-02T02:32:30.284Z,7.40
2018-11-02T02:34:57.586Z,7.40
2018-11-02T02:37:24.896Z,7.50
2018-11-02T02:39:52.181Z,7.50
2018-11-02T02:42:19.510Z,7.50
2018-11-02T02:44:46.909Z,7.50
2018-11-02T02:47:14.216Z,7.60
2018-11-02T02:49:41.531Z,7.60
2018-11-02T02:52:08.992Z,7.70
2018-11-02T02:54:36.311Z,7.70
2018-11-02T02:57:03.598Z,7.80
2018-11-02T02:59:31.123Z,7.80
2018-11-02T03:01:58.397Z,7.80
2018-11-02T03:04:25.717Z,7.80
2018-11-02T03:06:53.155Z,7.80
2018-11-02T03:09:20.452Z,7.90
2018-11-02T03:11:47.776Z,7.90
2018-11-02T03:14:15.198Z,8.00
2018-11-02T03:16:42.503Z,8.00
2018-11-02T03:19:09.848Z,8.00
2018-11-02T03:21:37.263Z,8.00
2018-11-02T03:24:05.029Z,8.10
2018-11-02T03:26:32.304Z,8.10
2018-11-02T03:28:59.720Z,8.10
2018-11-02T03:31:27.061Z,8.10
2018-11-02T03:33:54.331Z,8.10
2018-11-02T03:36:21.690Z,8.10
2018-11-02T03:38:48.992Z,8.20
2018-11-02T03:41:16.336Z,8.20
2018-11-02T03:43:43.669Z,8.20
2018-11-02T03:46:11.576Z,8.30
2018-11-02T03:48:38.892Z,8.30
2018-11-02T03:51:06.351Z,8.30
2018-11-02T03:53:33.646Z,8.30
2018-11-02T03:56:00.944Z,8.30
2018-11-02T03:58:28.376Z,8.30
2018-11-02T04:00:55.750Z,8.30
2018-11-02T04:03:23.121Z,8.30
2018-11-02T04:05:50.549Z,8.30
2018-11-02T04:08:17.834Z,8.30
2018-11-02T04:10:45.159Z,8.30
2018-11-02T04:13:12.572Z,8.30
2018-11-02T04:15:39.871Z,8.30
2018-11-02T04:18:07.660Z,8.30
2018-11-02T04:20:34.984Z,8.30
2018-11-02T04:23:02.295Z,8.30
2018-11-02T04:25:29.596Z,8.30
2018-11-02T04:27:57.068Z,8.30
2018-11-02T04:30:24.361Z,8.30
2018-11-02T04:32:51.679Z,8.30
2018-11-02T04:35:19.082Z,8.40
2018-11-02T04:37:46.357Z,8.40
2018-11-02T04:40:13.740Z,8.40
2018-11-02T04:42:41.155Z,8.40
2018-11-02T04:45:08.463Z,8.40
2018-11-02T04:47:35.743Z,8.40
2018-11-02T04:50:03.623Z,8.40
2018-11-02T04:52:30.969Z,8.40
2018-11-02T04:54:58.197Z,8.30
2018-11-02T04:57:25.749Z,8.30
2018-11-02T04:59:53.035Z,8.30
2018-11-02T05:02:20.291Z,8.30
2018-11-02T05:04:47.710Z,8.30
2018-11-02T05:07:15.120Z,8.30
2018-11-02T05:09:42.460Z,8.30
2018-11-02T05:12:09.847Z,8.30
2018-11-02T05:14:37.148Z,8.30
2018-11-02T05:17:04.583Z,8.40
2018-11-02T05:19:31.957Z,8.40
2018-11-02T05:21:59.242Z,8.30
2018-11-02T05:24:26.526Z,8.40
2018-11-02T05:26:54.171Z,8.40
2018-11-02T05:29:21.428Z,8.40
2018-11-02T05:31:48.695Z,8.40
2018-11-02T05:34:16.699Z,8.40
2018-11-02T05:36:43.973Z,8.40
2018-11-02T05:39:12.487Z,8.40
2018-11-02T05:41:39.932Z,8.40
2018-11-02T05:44:07.527Z,8.40
2018-11-02T05:46:35.184Z,8.50
2018-11-02T05:49:02.581Z,8.50
2018-11-02T05:51:29.884Z,8.50
2018-11-02T05:53:57.227Z,8.50
2018-11-02T05:56:24.582Z,8.50
2018-11-02T05:58:51.825Z,8.50
2018-11-02T06:01:19.144Z,8.50
2018-11-02T06:03:46.892Z,8.50
2018-11-02T06:06:14.180Z,8.40
2018-11-02T06:08:41.486Z,8.40
2018-11-02T06:11:08.968Z,8.40
2018-11-02T06:13:36.267Z,8.30
2018-11-02T06:16:03.595Z,8.40
2018-11-02T06:18:31.014Z,8.40
2018-11-02T06:20:58.278Z,8.30
2018-11-02T06:23:25.551Z,8.30
2018-11-02T06:25:52.964Z,8.20
2018-11-02T06:28:20.277Z,8.10
2018-11-02T06:30:47.690Z,8.10
2018-11-02T06:33:15.096Z,8.00
2018-11-02T06:35:42.391Z,8.00
2018-11-02T06:38:09.725Z,7.90
2018-11-02T06:40:37.233Z,7.80
2018-11-02T06:43:04.728Z,7.80
2018-11-02T06:45:32.004Z,7.90
2018-11-02T06:47:59.418Z,7.90
2018-11-02T06:50:26.709Z,8.00
2018-11-02T06:52:53.983Z,8.10
2018-11-02T06:55:21.423Z,8.20
2018-11-02T06:57:48.707Z,8.30
2018-11-02T07:00:16.078Z,8.30
2018-11-02T07:02:43.452Z,8.40
2018-11-02T07:05:10.713Z,8.40
2018-11-02T07:07:38.470Z,8.40
2018-11-02T07:10:07.564Z,8.40
2018-11-02T07:12:35.011Z,8.50
2018-11-02T07:15:02.278Z,8.50
2018-11-02T07:17:29.659Z,8.50
2018-11-02T07:19:57.199Z,8.60
2018-11-02T07:22:24.591Z,8.60
2018-11-02T07:24:52.174Z,8.70
2018-11-02T07:27:19.580Z,8.70
2018-11-02T07:29:47.066Z,8.80
2018-11-02T07:32:14.541Z,8.80
2018-11-02T07:34:42.184Z,8.90
2018-11-02T07:37:09.635Z,9.00
2018-11-02T07:39:37.237Z,9.00
2018-11-02T07:42:04.595Z,9.00
2018-11-02T07:44:34.154Z,9.00
2018-11-02T07:47:01.740Z,9.10
2018-11-02T07:49:29.454Z,9.10
2018-11-02T07:51:56.910Z,9.20
2018-11-02T07:54:24.675Z,9.20
2018-11-02T07:56:52.180Z,9.30
2018-11-02T07:59:19.767Z,9.30
2018-11-02T08:01:48.118Z,9.40
2018-11-02T08:04:16.383Z,9.40
2018-11-02T08:06:43.939Z,9.40
2018-11-02T08:09:13.135Z,9.40
2018-11-02T08:11:40.954Z,9.40
2018-11-02T08:14:08.551Z,9.50
2018-11-02T08:16:36.313Z,9.60
2018-11-02T08:19:04.244Z,9.60
2018-11-02T08:21:31.716Z,9.70
2018-11-02T08:23:59.343Z,9.70
2018-11-02T08:26:26.887Z,9.70
2018-11-02T08:28:54.606Z,9.70
2018-11-02T08:31:22.288Z,9.70
2018-11-02T08:33:49.867Z,9.80
2018-11-02T08:36:17.423Z,9.80
2018-11-02T08:38:45.476Z,9.70
2018-11-02T08:41:13.024Z,9.80
2018-11-02T08:43:40.599Z,9.70
2018-11-02T08:46:08.396Z,9.80
2018-11-02T08:48:36.037Z,9.70
2018-11-02T08:51:03.631Z,9.70
2018-11-02T08:53:31.193Z,9.70
2018-11-02T08:55:58.748Z,9.70
2018-11-02T08:58:26.345Z,9.70
2018-11-02T09:00:53.945Z,9.70
2018-11-02T09:03:21.468Z,9.70
2018-11-02T09:05:48.955Z,9.70
2018-11-02T09:08:16.656Z,9.90
2018-11-02T09:10:43.940Z,10.00
2018-11-02T09:13:11.284Z,10.00
2018-11-02T09:15:38.751Z,10.00
2018-11-02T09:18:06.021Z,10.00
2018-11-02T09:20:33.359Z,10.00
2018-11-02T09:23:00.834Z,10.00
2018-11-02T09:25:28.117Z,10.10
2018-11-02T09:27:55.422Z,10.20
2018-11-02T09:30:22.888Z,10.30
2018-11-02T09:32:50.164Z,10.20
2018-11-02T09:35:17.438Z,10.20
2018-11-02T09:37:44.851Z,10.20
2018-11-02T09:40:12.333Z,10.30
2018-11-02T09:42:39.702Z,10.40
2018-11-02T09:45:09.004Z,10.40
2018-11-02T09:47:36.296Z,10.40
2018-11-02T09:50:04.479Z,10.40
2018-11-02T09:52:31.884Z,10.30
2018-11-02T09:54:59.189Z,10.30
2018-11-02T09:57:26.620Z,10.40
2018-11-02T09:59:53.983Z,10.50
2018-11-02T10:02:21.264Z,10.50
2018-11-02T10:04:48.593Z,10.50
2018-11-02T10:07:16.027Z,10.50
2018-11-02T10:09:43.327Z,10.50
2018-11-02T10:12:10.725Z,10.50
2018-11-02T10:14:38.241Z,10.50
2018-11-02T10:17:05.527Z,10.50
2018-11-02T10:19:32.815Z,10.60
2018-11-02T10:22:00.167Z,10.60
2018-11-02T10:24:27.496Z,10.70
2018-11-02T10:26:54.857Z,10.70
2018-11-02T10:29:22.345Z,10.70
2018-11-02T10:31:49.731Z,10.70
2018-11-02T10:34:17.024Z,10.90
2018-11-02T10:36:44.452Z,10.90
2018-11-02T10:39:13.127Z,11.00
2018-11-02T10:41:45.300Z,11.00
2018-11-02T10:44:14.039Z,11.00
2018-11-02T10:46:41.284Z,11.10
2018-11-02T10:49:08.704Z,11.20
2018-11-02T10:51:35.973Z,11.30
2018-11-02T10:54:03.259Z,11.40
2018-11-02T10:56:30.681Z,11.30
2018-11-02T10:58:57.902Z,11.30
2018-11-02T11:01:31.180Z,11.40
2018-11-02T11:03:58.462Z,11.50
2018-11-02T11:06:25.854Z,11.50
2018-11-02T11:08:53.335Z,11.50
2018-11-02T11:11:20.671Z,11.50
2018-11-02T11:13:48.195Z,11.50
2018-11-02T11:16:15.373Z,11.50
2018-11-02T11:18:42.641Z,11.30
2018-11-02T11:21:10.015Z,11.40
2018-11-02T11:23:37.347Z,11.40
2018-11-02T11:26:04.820Z,11.50
2018-11-02T11:28:32.104Z,11.70
2018-11-02T11:30:59.500Z,11.70
2018-11-02T11:33:27.210Z,11.70
2018-11-02T11:35:54.516Z,11.40
2018-11-02T11:38:21.900Z,11.30
2018-11-02T11:40:49.203Z,11.40
2018-11-02T11:43:16.496Z,11.30
2018-11-02T11:45:43.925Z,11.30
2018-11-02T11:48:11.298Z,11.30
2018-11-02T11:50:38.636Z,11.40
2018-11-02T11:53:06.118Z,11.40
2018-11-02T11:55:33.408Z,11.30
2018-11-02T11:58:00.688Z,11.40
2018-11-02T12:00:28.143Z,11.20
2018-11-02T12:02:58.393Z,11.10
2018-11-02T12:05:32.024Z,11.10
2018-11-02T12:07:59.515Z,11.00
2018-11-02T12:10:26.982Z,11.00
2018-11-02T12:12:54.277Z,11.00
2018-11-02T12:15:22.492Z,11.00
2018-11-02T12:17:50.263Z,11.10
2018-11-02T12:20:21.096Z,11.10
2018-11-02T12:22:49.390Z,11.10
2018-11-02T12:25:16.686Z,11.10
2018-11-02T12:27:44.106Z,11.10
2018-11-02T12:30:12.870Z,11.10
2018-11-02T12:32:40.184Z,11.10
2018-11-02T12:35:15.752Z,11.10
2018-11-02T12:37:43.040Z,11.10
2018-11-02T12:40:15.048Z,11.00
2018-11-02T12:42:44.512Z,11.00
2018-11-02T12:45:13.108Z,11.00
2018-11-02T12:47:40.954Z,11.00
2018-11-02T12:50:15.714Z,10.90
2018-11-02T12:52:43.894Z,11.00
2018-11-02T12:55:11.970Z,10.90
2018-11-02T12:57:39.427Z,10.90
2018-11-02T13:00:09.203Z,10.80
2018-11-02T13:02:36.655Z,10.90
2018-11-02T13:05:04.176Z,11.00
2018-11-02T13:07:31.629Z,11.00
2018-11-02T13:09:58.930Z,11.00
2018-11-02T13:12:26.243Z,11.00
2018-11-02T13:14:53.619Z,11.00
2018-11-02T13:17:20.903Z,10.90
2018-11-02T13:19:48.224Z,10.90
2018-11-02T13:22:15.725Z,10.80
2018-11-02T13:24:42.917Z,10.80
2018-11-02T13:27:10.232Z,10.80
2018-11-02T13:29:37.803Z,10.80
2018-11-02T13:32:05.225Z,10.70
2018-11-02T13:34:32.529Z,10.70
2018-11-02T13:37:00.122Z,10.70
2018-11-02T13:39:27.947Z,10.70
2018-11-02T13:41:55.251Z,10.70
2018-11-02T13:44:22.681Z,10.70
2018-11-02T13:46:49.995Z,10.70
2018-11-02T13:49:17.273Z,10.70
2018-11-02T13:51:44.636Z,10.70
2018-11-02T13:54:11.950Z,10.60
2018-11-02T13:56:39.222Z,10.60
2018-11-02T13:59:06.757Z,10.60
2018-11-02T14:01:34.077Z,10.60
2018-11-02T14:04:01.384Z,10.60
2018-11-02T14:06:29.253Z,10.50
2018-11-02T14:08:56.523Z,10.60
2018-11-02T14:11:23.968Z,10.60
2018-11-02T14:13:51.407Z,10.60
2018-11-02T14:16:18.761Z,10.60
2018-11-02T14:18:46.073Z,10.70
2018-11-02T14:21:13.536Z,10.70
2018-11-02T14:23:40.854Z,10.70
2018-11-02T14:26:08.279Z,10.70
2018-11-02T14:28:35.873Z,10.70
2018-11-02T14:31:03.242Z,10.70
2018-11-02T14:33:30.555Z,10.70
2018-11-02T14:35:58.074Z,10.70
2018-11-02T14:38:25.348Z,10.70
2018-11-02T14:40:52.770Z,10.70
2018-11-02T14:43:20.034Z,10.60
2018-11-02T14:45:47.348Z,10.70
2018-11-02T14:48:14.642Z,10.70
2018-11-02T14:50:42.004Z,10.70
2018-11-02T14:53:09.313Z,10.70
2018-11-02T14:55:36.595Z,10.70
2018-11-02T14:58:04.263Z,10.70
2018-11-02T15:00:31.552Z,10.70
2018-11-02T15:02:58.894Z,10.70
2018-11-02T15:05:26.340Z,10.70
2018-11-02T15:07:53.687Z,10.70
2018-11-02T15:10:21.005Z,10.70
2018-11-02T15:12:48.310Z,10.80
2018-11-02T15:15:15.606Z,10.80
2018-11-02T15:17:42.878Z,10.80
2018-11-02T15:20:11.896Z,10.80
2018-11-02T15:22:39.129Z,10.70
2018-11-02T15:25:06.704Z,10.60
2018-11-02T15:27:34.139Z,10.60
2018-11-02T15:30:01.466Z,10.60
2018-11-02T15:32:28.711Z,10.60
2018-11-02T15:34:56.116Z,10.60
2018-11-02T15:37:23.629Z,10.60
2018-11-02T15:39:50.952Z,10.60
2018-11-02T15:42:18.364Z,10.60
2018-11-02T15:44:45.801Z,10.70
2018-11-02T15:47:13.198Z,10.60
2018-11-02T15:49:40.615Z,10.60
2018-11-02T15:52:07.985Z,10.60
2018-11-02T15:54:35.275Z,10.60
2018-11-02T15:57:02.741Z,10.60
2018-11-02T15:59:30.234Z,10.60
2018-11-02T16:01:57.520Z,10.60
2018-11-02T16:04:24.995Z,10.60
2018-11-02T16:06:52.298Z,10.60
2018-11-02T16:09:19.551Z,10.60
2018-11-02T16:11:46.823Z,10.50
2018-11-02T16:14:14.513Z,10.50
2018-11-02T16:16:41.989Z,10.50
2018-11-02T16:19:09.386Z,10.40
2018-11-02T16:21:37.419Z,10.40
2018-11-02T16:24:05.090Z,10.20
2018-11-02T16:26:32.499Z,10.10
2018-11-02T16:28:59.790Z,10.10
2018-11-02T16:31:27.159Z,10.00
2018-11-02T16:33:55.365Z,10.00
2018-11-02T16:36:22.657Z,10.00
2018-11-02T16:38:49.935Z,10.00
2018-11-02T16:41:17.303Z,10.00
2018-11-02T16:43:44.598Z,9.90
2018-11-02T16:46:14.924Z,9.90
2018-11-02T16:48:42.535Z,9.80
2018-11-02T16:51:09.787Z,9.70
2018-11-02T16:53:37.083Z,9.60
2018-11-02T16:56:04.581Z,9.60
2018-11-02T16:58:31.859Z,9.50
2018-11-02T17:00:59.115Z,9.50
2018-11-02T17:03:26.597Z,9.50
2018-11-02T17:05:53.944Z,9.60
2018-11-02T17:08:21.198Z,9.70
2018-11-02T17:10:48.581Z,9.70
2018-11-02T17:13:15.992Z,9.80
2018-11-02T17:15:43.279Z,9.70
2018-11-02T17:18:10.668Z,9.70
2018-11-02T17:20:37.983Z,9.80
2018-11-02T17:23:05.277Z,9.70
2018-11-02T17:25:32.665Z,9.60
2018-11-02T17:27:59.940Z,9.60
2018-11-02T17:30:27.277Z,9.60
2018-11-02T17:32:54.621Z,9.50
2018-11-02T17:35:21.911Z,9.50
2018-11-02T17:37:49.172Z,9.40
2018-11-02T17:40:16.555Z,9.40
2018-11-02T17:42:44.323Z,9.30
2018-11-02T17:45:11.723Z,9.30
2018-11-02T17:47:40.141Z,9.30
2018-11-02T17:50:08.656Z,9.30
2018-11-02T17:52:35.914Z,9.20
2018-11-02T17:55:03.344Z,9.20
2018-11-02T17:57:30.641Z,9.20
2018-11-02T17:59:57.984Z,9.20
2018-11-02T18:02:25.667Z,9.10
2018-11-02T18:04:52.954Z,9.00
2018-11-02T18:07:20.239Z,9.00
2018-11-02T18:09:47.662Z,8.90
2018-11-02T18:12:15.062Z,8.90
2018-11-02T18:14:42.272Z,8.90
2018-11-02T18:17:09.647Z,8.90
2018-11-02T18:19:36.900Z,8.90
2018-11-02T18:22:04.533Z,8.90
2018-11-02T18:24:31.984Z,9.00
2018-11-02T18:26:59.172Z,9.00
2018-11-02T18:29:26.450Z,9.00
2018-11-02T18:31:54.103Z,9.00
2018-11-02T18:34:21.390Z,9.00
2018-11-02T18:36:48.694Z,8.90
2018-11-02T18:39:16.507Z,8.90
2018-11-02T18:41:44.473Z,8.90
2018-11-02T18:44:12.200Z,8.80
2018-11-02T18:46:40.253Z,8.70
2018-11-02T18:49:08.279Z,8.70
2018-11-02T18:51:35.689Z,8.60
2018-11-02T18:54:03.439Z,8.60
2018-11-02T18:56:30.679Z,8.60
2018-11-02T18:58:58.008Z,8.50
2018-11-02T19:01:25.839Z,8.60
2018-11-02T19:03:53.148Z,8.50
2018-11-02T19:06:20.404Z,8.50
2018-11-02T19:08:47.842Z,8.40
2018-11-02T19:11:15.114Z,8.40
2018-11-02T19:13:42.413Z,8.50
2018-11-02T19:16:09.806Z,8.40
2018-11-02T19:18:37.328Z,8.30
2018-11-02T19:21:04.892Z,8.30
2018-11-02T19:23:32.356Z,8.20
2018-11-02T19:25:59.655Z,8.30
2018-11-02T19:28:26.926Z,8.30
2018-11-02T19:30:54.303Z,8.30
2018-11-02T19:33:21.551Z,8.20
2018-11-02T19:35:48.828Z,8.20
2018-11-02T19:38:16.208Z,8.20
2018-11-02T19:40:43.477Z,8.20
2018-11-02T19:43:10.721Z,8.20
2018-11-02T19:45:38.095Z,8.10
2018-11-02T19:48:05.940Z,8.10
2018-11-02T19:50:33.290Z,8.10
2018-11-02T19:53:00.686Z,8.10
2018-11-02T19:55:28.013Z,8.10
2018-11-02T19:57:55.254Z,8.10
2018-11-02T20:00:22.627Z,8.10
2018-11-02T20:02:50.004Z,8.00
2018-11-02T20:05:18.515Z,8.00
2018-11-02T20:07:45.916Z,7.90
2018-11-02T20:10:14.012Z,7.90
2018-11-02T20:12:42.754Z,7.90
2018-11-02T20:15:11.096Z,7.90
2018-11-02T20:17:38.840Z,7.90
2018-11-02T20:20:07.251Z,7.90
2018-11-02T20:22:35.059Z,7.80
2018-11-02T20:25:02.430Z,7.80
2018-11-02T20:27:29.715Z,7.80
2018-11-02T20:29:57.066Z,7.80
2018-11-02T20:32:24.328Z,7.80
2018-11-02T20:34:51.584Z,7.80
2018-11-02T20:37:18.983Z,7.80
2018-11-02T20:39:46.427Z,7.80
2018-11-02T20:42:13.515Z,7.80
2018-11-02T20:44:40.899Z,7.80
2018-11-02T20:47:08.141Z,7.70
2018-11-02T20:49:35.439Z,7.70
2018-11-02T20:52:02.843Z,7.70
2018-11-02T20:54:30.119Z,7.70
2018-11-02T20:56:57.992Z,7.60
2018-11-02T20:59:25.372Z,7.60
2018-11-02T21:01:52.677Z,7.60
2018-11-02T21:04:19.955Z,7.60
2018-11-02T21:06:47.346Z,7.60
2018-11-02T21:09:14.774Z,7.60
2018-11-02T21:11:42.776Z,7.60
2018-11-02T21:14:10.217Z,7.60
2018-11-02T21:16:37.382Z,7.60
2018-11-02T21:19:05.001Z,7.50
2018-11-02T21:21:32.403Z,7.50
2018-11-02T21:23:59.806Z,7.60
2018-11-02T21:26:27.129Z,7.60
2018-11-02T21:28:54.564Z,7.60
2018-11-02T21:31:21.735Z,7.50
2018-11-02T21:33:49.096Z,7.60
2018-11-02T21:36:16.426Z,7.50
2018-11-02T21:38:43.722Z,7.50
2018-11-02T21:41:10.949Z,7.50
2018-11-02T21:43:38.307Z,7.50
2018-11-02T21:46:05.618Z,7.50
2018-11-02T21:48:32.907Z,7.40
2018-11-02T21:51:00.386Z,7.40
2018-11-02T21:53:27.731Z,7.40
2018-11-02T21:55:54.968Z,7.40
2018-11-02T21:58:22.418Z,7.40
2018-11-02T22:00:49.590Z,7.30
2018-11-02T22:03:16.852Z,7.30
2018-11-02T22:05:45.075Z,7.30
2018-11-02T22:08:12.308Z,7.30
2018-11-02T22:10:39.592Z,7.30
2018-11-02T22:13:07.000Z,7.20
2018-11-02T22:15:34.251Z,7.20
2018-11-02T22:18:01.525Z,7.20
2018-11-02T22:20:28.870Z,7.20
2018-11-02T22:22:56.134Z,7.20
2018-11-02T22:25:23.409Z,7.20
2018-11-02T22:27:50.774Z,7.20
2018-11-02T22:30:18.126Z,7.20
2018-11-02T22:32:45.339Z,7.20
2018-11-02T22:35:13.342Z,7.20
2018-11-02T22:37:40.705Z,7.30
2018-11-02T22:40:09.181Z,7.30
2018-11-02T22:42:36.486Z,7.20
2018-11-02T22:45:04.319Z,7.30
2018-11-02T22:47:31.702Z,7.20
2018-11-02T22:49:59.047Z,7.20
2018-11-02T22:52:26.313Z,7.20
2018-11-02T22:54:53.615Z,7.20
2018-11-02T22:57:20.871Z,7.30
2018-11-02T22:59:48.097Z,7.20
2018-11-02T23:02:15.354Z,7.20
2018-11-02T23:04:42.719Z,7.20
2018-11-02T23:07:10.107Z,7.10
2018-11-02T23:09:37.374Z,7.10
2018-11-02T23:12:04.899Z,7.20
2018-11-02T23:14:32.150Z,7.10
2018-11-02T23:16:59.441Z,7.10
2018-11-02T23:19:26.916Z,7.20
2018-11-02T23:21:54.174Z,7.20
2018-11-02T23:24:21.432Z,7.20
2018-11-02T23:26:48.831Z,7.30
2018-11-02T23:29:16.196Z,7.40
2018-11-02T23:31:43.432Z,7.40
2018-11-02T23:34:10.806Z,7.40
2018-11-02T23:36:38.066Z,7.40
2018-11-02T23:39:06.252Z,7.30
2018-11-02T23:41:33.599Z,7.30
2018-11-02T23:44:00.860Z,7.30
2018-11-02T23:46:28.114Z,7.20
2018-11-02T23:48:55.371Z,7.10
2018-11-02T23:51:22.649Z,7.10
2018-11-02T23:53:49.883Z,7.10
2018-11-02T23:56:17.187Z,7.00
2018-11-02T23:58:44.403Z,7.00
